createdAt,value
2023-02-11T00:00:43.108Z,17.80
2023-02-11T00:03:13.491Z,17.10
2023-02-11T00:05:43.814Z,16.60
2023-02-11T00:08:16.958Z,17.40
2023-02-11T00:10:47.462Z,15.30
2023-02-11T00:13:17.982Z,15.60
2023-02-11T00:15:48.588Z,14.40
2023-02-11T00:18:19.213Z,13.80
2023-02-11T00:20:49.680Z,14.40
2023-02-11T00:23:20.338Z,15.90
2023-02-11T00:25:51.462Z,14.60
2023-02-11T00:28:22.062Z,14.10
2023-02-11T00:30:59.091Z,13.10
2023-02-11T00:33:29.606Z,14.20
2023-02-11T00:36:00.000Z,14.90
2023-02-11T00:38:30.384Z,13.90
2023-02-11T00:41:00.810Z,14.40
2023-02-11T00:43:31.318Z,13.90
2023-02-11T00:46:01.717Z,12.60
2023-02-11T00:48:34.461Z,13.50
2023-02-11T00:51:05.826Z,12.80
2023-02-11T00:56:06.588Z,13.00
2023-02-11T00:58:37.124Z,13.30
2023-02-11T01:01:07.775Z,15.10
2023-02-11T01:03:38.224Z,14.00
2023-02-11T01:06:09.767Z,14.50
2023-02-11T01:08:41.370Z,15.00
2023-02-11T01:11:16.747Z,15.30
2023-02-11T01:13:50.201Z,15.30
2023-02-11T01:16:22.548Z,15.60
2023-02-11T01:18:52.982Z,15.10
2023-02-11T01:21:23.408Z,15.70
2023-02-11T01:23:54.669Z,14.80
2023-02-11T01:26:25.193Z,15.00
2023-02-11T01:28:55.827Z,14.40
2023-02-11T01:31:26.268Z,14.50
2023-02-11T01:33:56.729Z,15.20
2023-02-11T01:36:26.956Z,14.80
2023-02-11T01:38:57.355Z,12.80
2023-02-11T01:41:27.693Z,14.40
2023-02-11T01:44:14.555Z,13.70
2023-02-11T01:46:45.059Z,13.20
2023-02-11T01:49:20.153Z,13.60
2023-02-11T01:51:56.231Z,12.60
2023-02-11T01:54:49.202Z,13.90
2023-02-11T01:57:24.949Z,11.60
2023-02-11T02:00:05.901Z,12.60
2023-02-11T02:02:53.811Z,12.80
2023-02-11T02:05:31.956Z,12.70
2023-02-11T02:08:12.042Z,11.90
2023-02-11T02:10:46.739Z,11.70
2023-02-11T02:13:18.328Z,13.90
2023-02-11T02:15:53.377Z,14.10
2023-02-11T02:18:36.952Z,13.10
2023-02-11T02:21:47.066Z,13.00
2023-02-11T02:24:44.494Z,13.60
2023-02-11T02:27:42.222Z,13.30
2023-02-11T02:30:35.808Z,12.80
2023-02-11T02:33:23.677Z,15.30
2023-02-11T02:36:07.227Z,14.30
2023-02-11T02:38:45.046Z,15.20
2023-02-11T02:41:18.786Z,12.50
2023-02-11T02:43:52.054Z,15.10
2023-02-11T02:46:24.826Z,15.30
2023-02-11T02:48:56.575Z,13.70
2023-02-11T02:51:53.349Z,13.20
2023-02-11T02:54:38.059Z,13.70
2023-02-11T02:57:21.442Z,14.10
2023-02-11T03:00:02.790Z,13.40
2023-02-11T03:02:39.199Z,13.90
2023-02-11T03:05:17.330Z,13.40
2023-02-11T03:07:56.524Z,14.10
2023-02-11T03:10:29.978Z,13.90
2023-02-11T03:13:02.054Z,16.40
2023-02-11T03:15:38.587Z,14.40
2023-02-11T03:18:13.068Z,14.50
2023-02-11T03:20:46.533Z,13.70
2023-02-11T03:23:23.676Z,14.60
2023-02-11T03:25:57.864Z,16.70
2023-02-11T03:28:33.883Z,14.90
2023-02-11T03:31:14.597Z,14.00
2023-02-11T03:33:55.521Z,15.00
2023-02-11T03:36:32.710Z,17.10
2023-02-11T03:39:06.322Z,15.10
2023-02-11T03:41:38.728Z,15.10
2023-02-11T03:44:11.556Z,14.00
2023-02-11T03:46:48.328Z,14.20
2023-02-11T03:49:22.877Z,16.80
2023-02-11T03:51:54.853Z,17.90
2023-02-11T03:54:30.318Z,15.40
2023-02-11T03:57:03.346Z,17.30
2023-02-11T03:59:33.679Z,15.50
2023-02-11T04:02:03.961Z,15.50
2023-02-11T04:04:34.371Z,14.50
2023-02-11T04:07:04.670Z,15.30
2023-02-11T04:09:36.154Z,15.40
2023-02-11T04:12:07.439Z,15.80
2023-02-11T04:14:38.049Z,13.70
2023-02-11T04:17:08.554Z,17.90
2023-02-11T04:19:39.181Z,15.90
2023-02-11T04:22:09.843Z,15.80
2023-02-11T04:24:40.445Z,16.80
2023-02-11T04:27:10.814Z,18.40
2023-02-11T04:29:41.270Z,17.00
2023-02-11T04:32:12.217Z,15.90
2023-02-11T04:34:42.903Z,15.90
2023-02-11T04:37:13.206Z,16.70
2023-02-11T04:39:43.664Z,15.30
2023-02-11T04:42:14.118Z,14.30
2023-02-11T04:44:44.614Z,16.80
2023-02-11T04:47:15.405Z,14.50
2023-02-11T04:49:46.064Z,15.50
2023-02-11T04:52:16.462Z,17.60
2023-02-11T04:54:46.923Z,14.50
2023-02-11T04:57:17.448Z,14.00
2023-02-11T04:59:48.827Z,16.80
2023-02-11T05:04:48.393Z,15.90
2023-02-11T05:07:18.785Z,16.80
2023-02-11T05:09:49.253Z,15.80
2023-02-11T05:12:19.778Z,18.10
2023-02-11T05:14:50.170Z,16.30
2023-02-11T05:17:20.619Z,17.60
2023-02-11T05:19:51.135Z,16.60
2023-02-11T05:22:22.117Z,17.70
2023-02-11T05:24:52.980Z,16.90
2023-02-11T05:27:23.689Z,15.20
2023-02-11T05:29:54.074Z,12.90
2023-02-11T05:32:24.525Z,14.20
2023-02-11T05:34:54.925Z,13.00
2023-02-11T05:37:25.366Z,13.70
2023-02-11T05:39:55.812Z,13.80
2023-02-11T05:42:26.166Z,14.50
2023-02-11T05:44:56.580Z,13.90
2023-02-11T05:47:27.066Z,15.20
2023-02-11T05:49:57.573Z,15.80
2023-02-11T05:52:27.946Z,14.70
2023-02-11T05:54:58.266Z,14.00
2023-02-11T05:57:28.655Z,13.50
2023-02-11T05:59:58.974Z,14.40
2023-02-11T06:02:29.394Z,14.10
2023-02-11T06:04:59.959Z,13.20
2023-02-11T06:07:30.327Z,13.30
2023-02-11T06:10:00.729Z,13.80
2023-02-11T06:12:31.259Z,14.30
2023-02-11T06:15:01.649Z,15.00
2023-02-11T06:17:33.813Z,14.60
2023-02-11T06:20:05.292Z,13.10
2023-02-11T06:22:35.786Z,13.90
2023-02-11T06:25:07.030Z,14.70
2023-02-11T06:27:37.329Z,14.30
2023-02-11T06:30:09.918Z,13.80
2023-02-11T06:32:44.555Z,16.40
2023-02-11T06:35:16.119Z,16.40
2023-02-11T06:37:46.858Z,15.40
2023-02-11T06:40:17.469Z,14.70
2023-02-11T06:42:47.875Z,15.60
2023-02-11T06:45:19.073Z,15.60
2023-02-11T06:47:52.183Z,18.50
2023-02-11T06:50:22.928Z,17.30
2023-02-11T06:52:53.270Z,17.00
2023-02-11T06:55:23.807Z,16.70
2023-02-11T06:57:54.182Z,17.90
2023-02-11T07:00:33.684Z,19.10
2023-02-11T07:03:06.501Z,16.50
2023-02-11T07:05:38.772Z,17.10
2023-02-11T07:08:09.255Z,15.80
2023-02-11T07:10:39.697Z,16.80
2023-02-11T07:13:10.342Z,15.60
2023-02-11T07:15:42.287Z,15.80
2023-02-11T07:18:14.680Z,14.60
2023-02-11T07:20:45.380Z,15.10
2023-02-11T07:23:15.737Z,18.60
2023-02-11T07:25:46.186Z,17.00
2023-02-11T07:28:17.527Z,15.30
2023-02-11T07:33:16.897Z,18.10
2023-02-11T07:35:47.303Z,16.10
2023-02-11T07:38:17.970Z,15.50
2023-02-11T07:40:48.327Z,17.40
2023-02-11T07:43:18.761Z,15.50
2023-02-11T07:45:49.495Z,16.60
2023-02-11T07:48:20.223Z,16.40
2023-02-11T07:50:51.057Z,18.30
2023-02-11T07:53:21.424Z,18.40
2023-02-11T07:55:52.321Z,16.70
2023-02-11T07:58:22.939Z,15.30
2023-02-11T08:00:54.121Z,17.00
2023-02-11T08:03:24.649Z,16.50
2023-02-11T08:05:55.113Z,16.40
2023-02-11T08:08:26.830Z,18.30
2023-02-11T08:10:57.299Z,15.20
2023-02-11T08:13:29.942Z,16.30
2023-02-11T08:16:01.831Z,15.50
2023-02-11T08:18:33.314Z,16.40
2023-02-11T08:21:08.399Z,18.10
2023-02-11T08:23:41.125Z,17.50
2023-02-11T08:26:15.429Z,17.00
2023-02-11T08:28:48.003Z,16.90
2023-02-11T08:31:21.823Z,17.10
2023-02-11T08:33:54.584Z,15.40
2023-02-11T08:36:29.053Z,16.10
2023-02-11T08:39:17.513Z,18.10
2023-02-11T08:41:49.876Z,17.70
2023-02-11T08:46:50.744Z,16.90
2023-02-11T08:51:50.656Z,16.50
2023-02-11T08:54:21.241Z,17.40
2023-02-11T08:56:53.488Z,17.30
2023-02-11T08:59:23.945Z,17.30
2023-02-11T09:01:54.511Z,18.40
2023-02-11T09:04:25.140Z,17.50
2023-02-11T09:06:55.975Z,16.70
2023-02-11T09:09:26.413Z,17.10
2023-02-11T09:11:57.436Z,16.30
2023-02-11T09:14:28.352Z,19.20
2023-02-11T09:16:58.846Z,18.40
2023-02-11T09:19:29.710Z,15.40
2023-02-11T09:22:00.619Z,16.60
2023-02-11T09:24:31.113Z,18.60
2023-02-11T09:27:01.616Z,19.00
2023-02-11T09:29:32.405Z,17.70
2023-02-11T09:32:09.361Z,18.80
2023-02-11T09:34:41.739Z,19.30
2023-02-11T09:37:12.357Z,16.00
2023-02-11T09:39:42.785Z,16.50
2023-02-11T09:42:40.108Z,20.90
2023-02-11T09:45:19.322Z,18.30
2023-02-11T09:47:58.019Z,19.60
2023-02-11T09:50:35.138Z,18.40
2023-02-11T09:53:15.488Z,20.20
2023-02-11T09:55:49.056Z,20.50
2023-02-11T09:58:25.847Z,21.10
2023-02-11T10:01:06.454Z,20.60
2023-02-11T10:04:00.947Z,19.30
2023-02-11T10:06:50.587Z,18.60
2023-02-11T10:09:49.161Z,17.50
2023-02-11T10:12:45.995Z,19.40
2023-02-11T10:15:26.058Z,17.30
2023-02-11T10:18:17.324Z,20.40
2023-02-11T10:20:59.460Z,18.80
2023-02-11T10:23:35.411Z,18.20
2023-02-11T10:26:13.124Z,19.30
2023-02-11T10:28:49.152Z,18.40
2023-02-11T10:31:29.368Z,20.40
2023-02-11T10:34:20.712Z,19.60
2023-02-11T10:37:23.341Z,20.40
2023-02-11T10:39:58.520Z,19.80
2023-02-11T10:42:42.589Z,19.90
2023-02-11T10:45:23.363Z,20.30
2023-02-11T10:47:55.274Z,20.60
2023-02-11T10:50:37.120Z,21.40
2023-02-11T10:53:21.001Z,20.10
2023-02-11T10:55:57.366Z,22.80
2023-02-11T10:58:32.661Z,21.60
2023-02-11T11:01:08.034Z,19.60
2023-02-11T11:03:50.890Z,19.30
2023-02-11T11:06:32.429Z,20.30
2023-02-11T11:11:32.533Z,21.20
2023-02-11T11:14:03.684Z,21.30
2023-02-11T11:16:34.969Z,20.90
2023-02-11T11:19:26.436Z,21.90
2023-02-11T11:21:57.658Z,21.20
2023-02-11T11:24:44.057Z,21.30
2023-02-11T11:27:22.607Z,20.90
2023-02-11T11:29:56.388Z,21.50
2023-02-11T11:32:32.236Z,22.30
2023-02-11T11:35:07.681Z,22.10
2023-02-11T11:37:39.885Z,23.20
2023-02-11T11:42:21.183Z,20.50
2023-02-11T11:44:24.173Z,20.80
2023-02-11T11:47:10.556Z,20.20
2023-02-11T11:49:46.595Z,21.70
2023-02-11T11:52:34.597Z,20.90
2023-02-11T11:55:12.877Z,22.40
2023-02-11T11:57:44.491Z,22.00
2023-02-11T12:00:21.046Z,22.60
2023-02-11T12:03:26.743Z,22.60
2023-02-11T12:06:22.004Z,21.60
2023-02-11T12:09:03.424Z,20.00
2023-02-11T12:11:46.937Z,20.70
2023-02-11T12:14:30.702Z,19.80
2023-02-11T12:17:10.409Z,20.70
2023-02-11T12:20:05.581Z,21.90
2023-02-11T12:22:46.407Z,20.40
2023-02-11T12:25:27.957Z,20.90
2023-02-11T12:28:17.994Z,20.90
2023-02-11T12:31:05.711Z,20.00
2023-02-11T12:34:07.817Z,19.70
2023-02-11T12:36:55.272Z,20.80
2023-02-11T12:39:42.270Z,21.90
2023-02-11T12:43:02.462Z,18.90
2023-02-11T12:46:01.411Z,20.90
2023-02-11T12:48:54.316Z,19.80
2023-02-11T12:51:46.356Z,19.80
2023-02-11T12:54:26.676Z,20.00
2023-02-11T12:57:03.915Z,21.30
2023-02-11T12:59:46.553Z,20.40
2023-02-11T13:02:23.657Z,21.10
2023-02-11T13:04:58.674Z,21.80
2023-02-11T13:07:36.773Z,20.80
2023-02-11T13:10:17.861Z,21.80
2023-02-11T13:13:23.620Z,21.40
2023-02-11T13:16:00.961Z,20.50
2023-02-11T13:18:44.966Z,19.70
2023-02-11T13:21:30.837Z,20.00
2023-02-11T13:24:11.032Z,20.40
2023-02-11T13:26:48.650Z,20.00
2023-02-11T13:29:27.551Z,18.60
2023-02-11T13:32:08.101Z,20.10
2023-02-11T13:35:07.261Z,21.20
2023-02-11T13:37:40.429Z,21.50
2023-02-11T13:40:27.550Z,19.60
2023-02-11T13:43:00.273Z,21.20
2023-02-11T13:45:35.586Z,20.00
2023-02-11T13:48:09.988Z,19.20
2023-02-11T13:50:51.042Z,20.00
2023-02-11T13:53:22.785Z,18.30
2023-02-11T13:56:04.965Z,19.50
2023-02-11T13:58:47.689Z,19.60
2023-02-11T14:01:42.486Z,18.50
2023-02-11T14:04:43.929Z,19.70
2023-02-11T14:07:49.444Z,20.10
2023-02-11T14:10:52.414Z,20.00
2023-02-11T14:13:26.265Z,18.40
2023-02-11T14:16:22.547Z,18.80
2023-02-11T14:19:03.612Z,18.40
2023-02-11T14:21:37.469Z,19.30
2023-02-11T14:24:57.581Z,19.10
2023-02-11T14:27:33.172Z,19.20
2023-02-11T14:30:21.663Z,18.90
2023-02-11T14:33:12.059Z,18.00
2023-02-11T14:35:51.526Z,18.90
2023-02-11T14:38:30.215Z,18.50
2023-02-11T14:41:07.776Z,19.10
2023-02-11T14:43:45.481Z,19.50
2023-02-11T14:46:20.785Z,20.30
2023-02-11T14:48:55.185Z,19.70
2023-02-11T14:51:28.889Z,17.40
2023-02-11T14:54:03.629Z,19.80
2023-02-11T14:56:36.320Z,20.00
2023-02-11T14:59:20.087Z,19.70
2023-02-11T15:01:54.499Z,20.70
2023-02-11T15:04:30.644Z,18.00
2023-02-11T15:07:06.958Z,19.00
2023-02-11T15:09:43.062Z,19.10
2023-02-11T15:12:23.649Z,17.80
2023-02-11T15:14:56.338Z,16.30
2023-02-11T15:17:30.496Z,17.80
2023-02-11T15:20:04.088Z,17.90
2023-02-11T15:22:37.399Z,17.00
2023-02-11T15:25:14.885Z,16.90
2023-02-11T15:27:48.801Z,17.20
2023-02-11T15:30:31.685Z,16.70
2023-02-11T15:33:06.080Z,15.70
2023-02-11T15:35:39.383Z,18.10
2023-02-11T15:38:12.378Z,18.00
2023-02-11T15:40:52.533Z,18.50
2023-02-11T15:43:23.288Z,18.00
2023-02-11T15:46:02.376Z,18.90
2023-02-11T15:48:43.084Z,18.90
2023-02-11T15:51:22.728Z,19.70
2023-02-11T15:53:58.580Z,18.70
2023-02-11T15:56:33.082Z,18.30
2023-02-11T15:59:16.390Z,18.40
2023-02-11T16:01:48.554Z,18.40
2023-02-11T16:04:22.255Z,17.00
2023-02-11T16:06:53.462Z,18.70
2023-02-11T16:09:32.441Z,18.40
2023-02-11T16:12:07.391Z,18.50
2023-02-11T16:14:39.395Z,17.20
2023-02-11T16:17:12.118Z,17.70
2023-02-11T16:19:51.803Z,19.00
2023-02-11T16:22:27.301Z,19.70
2023-02-11T16:24:59.912Z,19.40
2023-02-11T16:27:36.550Z,19.00
2023-02-11T16:30:23.352Z,17.10
2023-02-11T16:32:55.828Z,19.90
2023-02-11T16:35:26.157Z,21.40
2023-02-11T16:37:56.833Z,22.70
2023-02-11T16:40:28.238Z,22.10
2023-02-11T16:45:27.911Z,20.80
2023-02-11T16:47:58.499Z,20.80
2023-02-11T16:50:30.151Z,19.00
2023-02-11T16:53:02.177Z,18.80
2023-02-11T16:55:32.985Z,19.20
2023-02-11T16:58:03.832Z,18.60
2023-02-11T17:00:34.281Z,19.70
2023-02-11T17:03:08.820Z,20.70
2023-02-11T17:05:54.425Z,17.70
2023-02-11T17:08:25.850Z,19.10
2023-02-11T17:10:56.432Z,18.90
2023-02-11T17:13:27.030Z,19.80
2023-02-11T17:15:57.716Z,18.60
2023-02-11T17:18:31.657Z,19.90
2023-02-11T17:21:07.115Z,19.70
2023-02-11T17:23:37.897Z,20.10
2023-02-11T17:26:08.613Z,20.00
2023-02-11T17:28:39.116Z,20.40
2023-02-11T17:31:11.613Z,21.10
2023-02-11T17:33:42.709Z,21.10
2023-02-11T17:36:13.612Z,19.20
2023-02-11T17:38:44.743Z,19.80
2023-02-11T17:41:15.447Z,19.00
2023-02-11T17:43:49.088Z,20.10
2023-02-11T17:46:19.602Z,21.90
2023-02-11T17:48:50.388Z,21.60
2023-02-11T17:51:29.905Z,21.00
2023-02-11T17:54:09.405Z,19.80
2023-02-11T17:56:40.518Z,20.40
2023-02-11T17:59:15.348Z,19.90
2023-02-11T18:01:48.444Z,20.40
2023-02-11T18:04:20.457Z,22.00
2023-02-11T18:06:53.583Z,21.40
2023-02-11T18:09:24.115Z,20.70
2023-02-11T18:11:54.643Z,19.80
2023-02-11T18:14:25.452Z,23.40
2023-02-11T18:16:55.900Z,22.10
2023-02-11T18:19:30.483Z,24.70
2023-02-11T18:22:03.789Z,22.90
2023-02-11T18:24:34.315Z,25.30
2023-02-11T18:27:05.385Z,24.30
2023-02-11T18:29:36.531Z,25.10
2023-02-11T18:32:07.306Z,23.80
2023-02-11T18:34:37.776Z,24.00
2023-02-11T18:38:29.396Z,25.40
2023-02-11T18:40:42.700Z,22.90
2023-02-11T18:43:15.804Z,25.10
2023-02-11T18:45:47.088Z,24.50
2023-02-11T18:50:48.414Z,24.30
2023-02-11T18:53:18.830Z,24.80
2023-02-11T18:55:49.893Z,26.50
2023-02-11T18:58:21.422Z,25.50
2023-02-11T19:00:52.217Z,25.10
2023-02-11T19:03:22.798Z,25.50
2023-02-11T19:05:56.340Z,25.50
2023-02-11T19:08:26.683Z,22.70
2023-02-11T19:10:56.993Z,25.10
2023-02-11T19:13:29.180Z,22.70
2023-02-11T19:15:59.684Z,26.30
2023-02-11T19:18:30.190Z,23.90
2023-02-11T19:21:00.598Z,26.90
2023-02-11T19:23:31.063Z,23.60
2023-02-11T19:26:04.511Z,25.00
2023-02-11T19:28:37.108Z,25.40
2023-02-11T19:31:11.971Z,24.20
2023-02-11T19:33:42.353Z,24.80
2023-02-11T19:36:16.356Z,24.90
2023-02-11T19:38:47.662Z,27.10
2023-02-11T19:41:22.070Z,26.50
2023-02-11T19:43:53.585Z,24.70
2023-02-11T19:46:25.247Z,24.20
2023-02-11T19:48:56.415Z,23.90
2023-02-11T19:51:26.885Z,25.00
2023-02-11T19:53:58.957Z,21.90
2023-02-11T19:56:32.059Z,23.10
2023-02-11T19:59:04.128Z,26.50
2023-02-11T20:01:34.668Z,24.20
2023-02-11T20:04:05.394Z,24.20
2023-02-11T20:06:36.305Z,22.70
2023-02-11T20:09:13.906Z,27.10
2023-02-11T20:11:45.326Z,23.30
2023-02-11T20:16:49.778Z,24.70
2023-02-11T20:19:22.952Z,22.90
2023-02-11T20:21:56.223Z,24.00
2023-02-11T20:24:27.567Z,24.40
2023-02-11T20:29:31.341Z,21.80
2023-02-11T20:32:02.957Z,21.10
2023-02-11T20:34:33.541Z,24.90
2023-02-11T20:37:04.052Z,24.20
2023-02-11T20:39:35.432Z,25.40
2023-02-11T20:44:37.973Z,22.90
2023-02-11T20:47:08.632Z,23.40
2023-02-11T20:49:39.110Z,25.30
2023-02-11T20:52:11.144Z,25.90
2023-02-11T20:54:41.808Z,26.30
2023-02-11T20:57:12.468Z,25.00
2023-02-11T20:59:43.092Z,24.40
2023-02-11T21:02:13.657Z,25.30
2023-02-11T21:04:44.344Z,26.70
2023-02-11T21:07:14.876Z,25.40
2023-02-11T21:09:45.425Z,24.50
2023-02-11T21:12:15.869Z,22.80
2023-02-11T21:14:46.823Z,23.20
2023-02-11T21:17:17.352Z,26.20
2023-02-11T21:19:47.818Z,25.20
2023-02-11T21:22:18.348Z,23.90
2023-02-11T21:24:48.769Z,24.30
2023-02-11T21:27:19.074Z,24.10
2023-02-11T21:29:54.691Z,24.90
2023-02-11T21:32:25.413Z,26.20
2023-02-11T21:34:55.865Z,24.80
2023-02-11T21:37:26.488Z,26.00
2023-02-11T21:39:56.957Z,27.70
2023-02-11T21:42:27.380Z,24.00
2023-02-11T21:44:57.743Z,24.70
2023-02-11T21:47:28.141Z,24.80
2023-02-11T21:49:58.438Z,24.00
2023-02-11T21:52:28.878Z,23.30
2023-02-11T21:54:59.318Z,22.90
2023-02-11T21:57:30.343Z,23.20
2023-02-11T22:00:01.003Z,23.80
2023-02-11T22:02:31.396Z,22.50
2023-02-11T22:05:02.086Z,21.90
2023-02-11T22:07:32.425Z,23.60
2023-02-11T22:10:03.079Z,25.40
2023-02-11T22:12:33.432Z,24.90
2023-02-11T22:15:03.791Z,25.10
2023-02-11T22:17:34.576Z,23.90
2023-02-11T22:20:05.329Z,21.70
2023-02-11T22:22:35.805Z,25.20
2023-02-11T22:25:06.488Z,23.40
2023-02-11T22:27:36.872Z,22.20
2023-02-11T22:30:09.536Z,23.50
2023-02-11T22:32:39.883Z,21.60
2023-02-11T22:35:10.468Z,23.00
2023-02-11T22:37:40.754Z,22.40
2023-02-11T22:40:13.069Z,23.40
2023-02-11T22:42:43.464Z,22.80
2023-02-11T22:45:13.681Z,21.80
2023-02-11T22:47:44.247Z,21.30
2023-02-11T22:50:14.896Z,21.30
2023-02-11T22:52:45.275Z,21.60
2023-02-11T22:55:15.922Z,22.30
2023-02-11T22:57:46.353Z,23.20
2023-02-11T23:00:18.981Z,24.10
2023-02-11T23:02:50.514Z,21.50
2023-02-11T23:07:50.291Z,19.30
2023-02-11T23:10:20.910Z,19.40
2023-02-11T23:12:51.247Z,21.60
2023-02-11T23:15:21.578Z,22.70
2023-02-11T23:17:51.890Z,21.20
2023-02-11T23:20:22.603Z,20.60
2023-02-11T23:22:52.972Z,21.10
2023-02-11T23:25:23.344Z,22.20
2023-02-11T23:27:53.598Z,20.80
2023-02-11T23:30:25.102Z,20.10
2023-02-11T23:32:55.414Z,22.10
2023-02-11T23:35:26.064Z,20.70
2023-02-11T23:37:56.682Z,21.00
2023-02-11T23:40:27.032Z,20.60
2023-02-11T23:42:57.429Z,22.10
2023-02-11T23:45:27.793Z,20.40
2023-02-11T23:47:58.175Z,21.10
2023-02-11T23:50:28.575Z,18.20
2023-02-11T23:52:58.940Z,21.70
2023-02-11T23:55:29.444Z,20.80
2023-02-11T23:57:59.784Z,20.90
